sensor_id;sensor_type;location;lat;lon;timestamp;temperature;humidity
29803;DHT22;16702;50.898;4.662;2023-12-28T00:00:25;11.30;99.90
29803;DHT22;16702;50.898;4.662;2023-12-28T00:02:56;11.30;99.90
29803;DHT22;16702;50.898;4.662;2023-12-28T00:05:27;11.30;99.90
29803;DHT22;16702;50.898;4.662;2023-12-28T00:07:57;11.30;99.90
29803;DHT22;16702;50.898;4.662;2023-12-28T00:10:28;11.30;99.90
29803;DHT22;16702;50.898;4.662;2023-12-28T00:12:59;11.30;99.90
29803;DHT22;16702;50.898;4.662;2023-12-28T00:15:32;11.10;99.90
29803;DHT22;16702;50.898;4.662;2023-12-28T00:18:04;11.30;99.90
29803;DHT22;16702;50.898;4.662;2023-12-28T00:20:34;11.30;99.90
29803;DHT22;16702;50.898;4.662;2023-12-28T00:23:05;11.30;99.90
29803;DHT22;16702;50.898;4.662;2023-12-28T00:25:36;11.30;99.90
29803;DHT22;16702;50.898;4.662;2023-12-28T00:28:06;11.30;99.90
29803;DHT22;16702;50.898;4.662;2023-12-28T00:30:40;11.40;99.90
29803;DHT22;16702;50.898;4.662;2023-12-28T00:33:10;11.30;99.90
29803;DHT22;16702;50.898;4.662;2023-12-28T00:35:41;11.30;99.90
29803;DHT22;16702;50.898;4.662;2023-12-28T00:38:12;11.30;99.90
29803;DHT22;16702;50.898;4.662;2023-12-28T00:40:40;11.30;99.90
29803;DHT22;16702;50.898;4.662;2023-12-28T00:43:10;11.40;99.90
29803;DHT22;16702;50.898;4.662;2023-12-28T00:45:43;11.30;99.90
29803;DHT22;16702;50.898;4.662;2023-12-28T00:48:14;11.40;99.90
29803;DHT22;16702;50.898;4.662;2023-12-28T00:50:45;11.30;99.90
29803;DHT22;16702;50.898;4.662;2023-12-28T00:53:16;11.30;99.90
29803;DHT22;16702;50.898;4.662;2023-12-28T00:55:47;11.30;99.90
29803;DHT22;16702;50.898;4.662;2023-12-28T00:58:18;11.30;99.90
29803;DHT22;16702;50.898;4.662;2023-12-28T01:00:51;11.30;99.90
29803;DHT22;16702;50.898;4.662;2023-12-28T01:03:24;11.30;99.90
29803;DHT22;16702;50.898;4.662;2023-12-28T01:05:55;11.30;99.90
29803;DHT22;16702;50.898;4.662;2023-12-28T01:08:25;11.30;99.90
29803;DHT22;16702;50.898;4.662;2023-12-28T01:10:56;11.30;99.90
29803;DHT22;16702;50.898;4.662;2023-12-28T01:13:27;11.30;99.90
29803;DHT22;16702;50.898;4.662;2023-12-28T01:16:01;11.30;99.90
29803;DHT22;16702;50.898;4.662;2023-12-28T01:18:33;11.30;99.90
29803;DHT22;16702;50.898;4.662;2023-12-28T01:21:04;11.30;99.90
29803;DHT22;16702;50.898;4.662;2023-12-28T01:23:35;11.30;99.90
29803;DHT22;16702;50.898;4.662;2023-12-28T01:26:06;11.30;99.90
29803;DHT22;16702;50.898;4.662;2023-12-28T01:28:42;11.30;99.90
29803;DHT22;16702;50.898;4.662;2023-12-28T01:31:15;11.30;99.90
29803;DHT22;16702;50.898;4.662;2023-12-28T01:33:46;11.30;99.90
29803;DHT22;16702;50.898;4.662;2023-12-28T01:36:17;11.30;99.90
29803;DHT22;16702;50.898;4.662;2023-12-28T01:38:48;11.30;99.90
29803;DHT22;16702;50.898;4.662;2023-12-28T01:41:19;11.30;99.90
29803;DHT22;16702;50.898;4.662;2023-12-28T01:43:49;11.30;99.90
29803;DHT22;16702;50.898;4.662;2023-12-28T01:46:23;11.30;99.90
29803;DHT22;16702;50.898;4.662;2023-12-28T01:48:53;11.20;99.90
29803;DHT22;16702;50.898;4.662;2023-12-28T01:51:24;11.20;99.90
29803;DHT22;16702;50.898;4.662;2023-12-28T01:53:56;11.20;99.90
29803;DHT22;16702;50.898;4.662;2023-12-28T01:56:27;11.20;99.90
29803;DHT22;16702;50.898;4.662;2023-12-28T01:58:59;11.20;99.90
29803;DHT22;16702;50.898;4.662;2023-12-28T02:01:32;11.20;99.90
29803;DHT22;16702;50.898;4.662;2023-12-28T02:04:03;11.20;99.90
29803;DHT22;16702;50.898;4.662;2023-12-28T02:06:34;11.20;99.90
29803;DHT22;16702;50.898;4.662;2023-12-28T02:09:05;11.20;99.90
29803;DHT22;16702;50.898;4.662;2023-12-28T02:11:35;11.10;99.90
29803;DHT22;16702;50.898;4.662;2023-12-28T02:14:06;11.10;99.90
29803;DHT22;16702;50.898;4.662;2023-12-28T02:16:44;11.20;99.90
29803;DHT22;16702;50.898;4.662;2023-12-28T02:19:30;11.10;99.90
29803;DHT22;16702;50.898;4.662;2023-12-28T02:22:03;11.20;99.90
29803;DHT22;16702;50.898;4.662;2023-12-28T02:24:59;11.10;99.90
29803;DHT22;16702;50.898;4.662;2023-12-28T02:27:30;11.10;99.90
29803;DHT22;16702;50.898;4.662;2023-12-28T02:30:00;11.10;99.90
29803;DHT22;16702;50.898;4.662;2023-12-28T02:32:46;11.10;99.90
29803;DHT22;16702;50.898;4.662;2023-12-28T02:35:23;11.20;99.90
29803;DHT22;16702;50.898;4.662;2023-12-28T02:37:58;11.10;99.90
29803;DHT22;16702;50.898;4.662;2023-12-28T02:40:35;11.10;99.90
29803;DHT22;16702;50.898;4.662;2023-12-28T02:43:07;11.10;99.90
29803;DHT22;16702;50.898;4.662;2023-12-28T02:45:38;11.10;99.90
29803;DHT22;16702;50.898;4.662;2023-12-28T02:48:09;11.10;99.90
29803;DHT22;16702;50.898;4.662;2023-12-28T02:50:40;11.10;99.90
29803;DHT22;16702;50.898;4.662;2023-12-28T02:53:11;11.10;99.90
29803;DHT22;16702;50.898;4.662;2023-12-28T02:55:44;11.10;99.90
29803;DHT22;16702;50.898;4.662;2023-12-28T02:58:15;11.10;99.90
29803;DHT22;16702;50.898;4.662;2023-12-28T03:00:47;11.10;99.90
29803;DHT22;16702;50.898;4.662;2023-12-28T03:03:18;11.20;99.90
29803;DHT22;16702;50.898;4.662;2023-12-28T03:05:48;11.10;99.90
29803;DHT22;16702;50.898;4.662;2023-12-28T03:08:19;11.20;99.90
29803;DHT22;16702;50.898;4.662;2023-12-28T03:10:52;11.20;99.90
29803;DHT22;16702;50.898;4.662;2023-12-28T03:13:23;11.20;99.90
29803;DHT22;16702;50.898;4.662;2023-12-28T03:15:54;11.20;99.90
29803;DHT22;16702;50.898;4.662;2023-12-28T03:18:24;11.20;99.90
29803;DHT22;16702;50.898;4.662;2023-12-28T03:20:55;11.20;99.90
29803;DHT22;16702;50.898;4.662;2023-12-28T03:23:27;11.20;99.90
29803;DHT22;16702;50.898;4.662;2023-12-28T03:26:01;11.20;99.90
29803;DHT22;16702;50.898;4.662;2023-12-28T03:28:31;11.20;99.90
29803;DHT22;16702;50.898;4.662;2023-12-28T03:31:02;11.20;99.90
29803;DHT22;16702;50.898;4.662;2023-12-28T03:33:34;11.20;99.90
29803;DHT22;16702;50.898;4.662;2023-12-28T03:36:05;11.20;99.90
29803;DHT22;16702;50.898;4.662;2023-12-28T03:38:36;11.20;99.90
29803;DHT22;16702;50.898;4.662;2023-12-28T03:41:19;11.30;99.90
29803;DHT22;16702;50.898;4.662;2023-12-28T03:43:50;11.30;99.90
29803;DHT22;16702;50.898;4.662;2023-12-28T03:46:20;11.30;99.90
29803;DHT22;16702;50.898;4.662;2023-12-28T03:48:51;11.30;99.90
29803;DHT22;16702;50.898;4.662;2023-12-28T03:51:22;11.30;99.90
29803;DHT22;16702;50.898;4.662;2023-12-28T03:53:53;11.30;99.90
29803;DHT22;16702;50.898;4.662;2023-12-28T03:56:27;11.30;99.90
29803;DHT22;16702;50.898;4.662;2023-12-28T03:58:58;11.30;99.90
29803;DHT22;16702;50.898;4.662;2023-12-28T04:01:28;11.30;99.90
29803;DHT22;16702;50.898;4.662;2023-12-28T04:03:59;11.30;99.90
29803;DHT22;16702;50.898;4.662;2023-12-28T04:06:30;11.30;99.90
29803;DHT22;16702;50.898;4.662;2023-12-28T04:09:00;11.30;99.90
29803;DHT22;16702;50.898;4.662;2023-12-28T04:11:34;11.30;99.90
29803;DHT22;16702;50.898;4.662;2023-12-28T04:14:05;11.30;99.90
29803;DHT22;16702;50.898;4.662;2023-12-28T04:16:36;11.40;99.90
29803;DHT22;16702;50.898;4.662;2023-12-28T04:19:07;11.40;99.90
29803;DHT22;16702;50.898;4.662;2023-12-28T04:21:38;11.40;99.90
29803;DHT22;16702;50.898;4.662;2023-12-28T04:24:09;11.40;99.90
29803;DHT22;16702;50.898;4.662;2023-12-28T04:26:42;11.30;99.90
29803;DHT22;16702;50.898;4.662;2023-12-28T04:29:12;11.40;99.90
29803;DHT22;16702;50.898;4.662;2023-12-28T04:31:43;11.40;99.90
29803;DHT22;16702;50.898;4.662;2023-12-28T04:34:14;11.40;99.90
29803;DHT22;16702;50.898;4.662;2023-12-28T04:36:44;11.30;99.90
29803;DHT22;16702;50.898;4.662;2023-12-28T04:39:16;11.30;99.90
29803;DHT22;16702;50.898;4.662;2023-12-28T04:41:50;11.30;99.90
29803;DHT22;16702;50.898;4.662;2023-12-28T04:44:22;11.30;99.90
29803;DHT22;16702;50.898;4.662;2023-12-28T04:46:53;11.30;99.90
29803;DHT22;16702;50.898;4.662;2023-12-28T04:49:24;11.30;99.90
29803;DHT22;16702;50.898;4.662;2023-12-28T04:51:54;11.30;99.90
29803;DHT22;16702;50.898;4.662;2023-12-28T04:54:25;11.30;99.90
29803;DHT22;16702;50.898;4.662;2023-12-28T04:56:58;11.30;99.90
29803;DHT22;16702;50.898;4.662;2023-12-28T04:59:29;11.30;99.90
29803;DHT22;16702;50.898;4.662;2023-12-28T05:01:59;11.30;99.90
29803;DHT22;16702;50.898;4.662;2023-12-28T05:04:30;11.30;99.90
29803;DHT22;16702;50.898;4.662;2023-12-28T05:07:01;11.30;99.90
29803;DHT22;16702;50.898;4.662;2023-12-28T05:09:31;11.30;99.90
29803;DHT22;16702;50.898;4.662;2023-12-28T05:12:06;11.30;99.90
29803;DHT22;16702;50.898;4.662;2023-12-28T05:14:36;11.30;99.90
29803;DHT22;16702;50.898;4.662;2023-12-28T05:17:07;11.30;99.90
29803;DHT22;16702;50.898;4.662;2023-12-28T05:19:37;11.20;99.90
29803;DHT22;16702;50.898;4.662;2023-12-28T05:22:08;11.20;99.90
29803;DHT22;16702;50.898;4.662;2023-12-28T05:24:40;11.30;99.90
29803;DHT22;16702;50.898;4.662;2023-12-28T05:27:13;11.20;99.90
29803;DHT22;16702;50.898;4.662;2023-12-28T05:29:43;11.20;99.90
29803;DHT22;16702;50.898;4.662;2023-12-28T05:32:14;11.20;99.90
29803;DHT22;16702;50.898;4.662;2023-12-28T05:34:45;11.20;99.90
29803;DHT22;16702;50.898;4.662;2023-12-28T05:37:17;11.20;99.90
29803;DHT22;16702;50.898;4.662;2023-12-28T05:39:48;11.20;99.90
29803;DHT22;16702;50.898;4.662;2023-12-28T05:42:22;11.20;99.90
29803;DHT22;16702;50.898;4.662;2023-12-28T05:44:52;11.20;99.90
29803;DHT22;16702;50.898;4.662;2023-12-28T05:47:23;11.20;99.90
29803;DHT22;16702;50.898;4.662;2023-12-28T05:49:54;11.20;99.90
29803;DHT22;16702;50.898;4.662;2023-12-28T05:52:24;11.20;99.90
29803;DHT22;16702;50.898;4.662;2023-12-28T05:54:55;11.20;99.90
29803;DHT22;16702;50.898;4.662;2023-12-28T05:57:29;11.20;99.90
29803;DHT22;16702;50.898;4.662;2023-12-28T05:59:59;11.20;99.90
29803;DHT22;16702;50.898;4.662;2023-12-28T06:02:38;11.20;99.90
29803;DHT22;16702;50.898;4.662;2023-12-28T06:05:09;11.20;99.90
29803;DHT22;16702;50.898;4.662;2023-12-28T06:07:40;11.20;99.90
29803;DHT22;16702;50.898;4.662;2023-12-28T06:10:11;11.20;99.90
29803;DHT22;16702;50.898;4.662;2023-12-28T06:12:44;11.20;99.90
29803;DHT22;16702;50.898;4.662;2023-12-28T06:15:14;11.20;99.90
29803;DHT22;16702;50.898;4.662;2023-12-28T06:17:45;11.20;99.90
29803;DHT22;16702;50.898;4.662;2023-12-28T06:20:16;11.20;99.90
29803;DHT22;16702;50.898;4.662;2023-12-28T06:22:46;11.20;99.90
29803;DHT22;16702;50.898;4.662;2023-12-28T06:25:18;11.20;99.90
29803;DHT22;16702;50.898;4.662;2023-12-28T06:27:51;11.20;99.90
29803;DHT22;16702;50.898;4.662;2023-12-28T06:30:22;11.20;99.90
29803;DHT22;16702;50.898;4.662;2023-12-28T06:32:52;11.10;99.90
29803;DHT22;16702;50.898;4.662;2023-12-28T06:35:23;11.20;99.90
29803;DHT22;16702;50.898;4.662;2023-12-28T06:37:53;11.20;99.90
29803;DHT22;16702;50.898;4.662;2023-12-28T06:40:24;11.10;99.90
29803;DHT22;16702;50.898;4.662;2023-12-28T06:42:57;11.10;99.90
29803;DHT22;16702;50.898;4.662;2023-12-28T06:45:28;11.10;99.90
29803;DHT22;16702;50.898;4.662;2023-12-28T06:47:59;11.10;99.90
29803;DHT22;16702;50.898;4.662;2023-12-28T06:50:30;11.10;99.90
29803;DHT22;16702;50.898;4.662;2023-12-28T06:53:01;11.00;99.90
29803;DHT22;16702;50.898;4.662;2023-12-28T06:55:31;11.10;99.90
29803;DHT22;16702;50.898;4.662;2023-12-28T06:58:04;11.10;99.90
29803;DHT22;16702;50.898;4.662;2023-12-28T07:00:35;11.10;99.90
29803;DHT22;16702;50.898;4.662;2023-12-28T07:03:06;11.00;99.90
29803;DHT22;16702;50.898;4.662;2023-12-28T07:05:36;11.10;99.90
29803;DHT22;16702;50.898;4.662;2023-12-28T07:08:07;11.10;99.90
29803;DHT22;16702;50.898;4.662;2023-12-28T07:10:38;11.10;99.90
29803;DHT22;16702;50.898;4.662;2023-12-28T07:13:11;11.00;99.90
29803;DHT22;16702;50.898;4.662;2023-12-28T07:15:42;11.00;99.90
29803;DHT22;16702;50.898;4.662;2023-12-28T07:18:12;11.00;99.90
29803;DHT22;16702;50.898;4.662;2023-12-28T07:20:43;11.00;99.90
29803;DHT22;16702;50.898;4.662;2023-12-28T07:23:13;11.00;99.90
29803;DHT22;16702;50.898;4.662;2023-12-28T07:25:44;11.00;99.90
29803;DHT22;16702;50.898;4.662;2023-12-28T07:28:17;11.00;99.90
29803;DHT22;16702;50.898;4.662;2023-12-28T07:30:51;11.00;99.90
29803;DHT22;16702;50.898;4.662;2023-12-28T07:33:22;11.00;99.90
29803;DHT22;16702;50.898;4.662;2023-12-28T07:35:53;11.00;99.90
29803;DHT22;16702;50.898;4.662;2023-12-28T07:38:26;11.00;99.90
29803;DHT22;16702;50.898;4.662;2023-12-28T07:40:57;10.90;99.90
29803;DHT22;16702;50.898;4.662;2023-12-28T07:43:30;10.90;99.90
29803;DHT22;16702;50.898;4.662;2023-12-28T07:46:00;10.90;99.90
29803;DHT22;16702;50.898;4.662;2023-12-28T07:48:31;10.90;99.90
29803;DHT22;16702;50.898;4.662;2023-12-28T07:51:04;10.80;99.90
29803;DHT22;16702;50.898;4.662;2023-12-28T07:53:35;10.80;99.90
29803;DHT22;16702;50.898;4.662;2023-12-28T07:56:06;10.80;99.90
29803;DHT22;16702;50.898;4.662;2023-12-28T07:58:39;10.90;99.90
29803;DHT22;16702;50.898;4.662;2023-12-28T08:01:10;10.90;99.90
29803;DHT22;16702;50.898;4.662;2023-12-28T08:03:41;10.80;99.90
29803;DHT22;16702;50.898;4.662;2023-12-28T08:06:12;10.70;99.90
29803;DHT22;16702;50.898;4.662;2023-12-28T08:08:43;10.80;99.90
29803;DHT22;16702;50.898;4.662;2023-12-28T08:11:13;10.80;99.90
29803;DHT22;16702;50.898;4.662;2023-12-28T08:13:46;10.70;99.90
29803;DHT22;16702;50.898;4.662;2023-12-28T08:16:17;10.80;99.90
29803;DHT22;16702;50.898;4.662;2023-12-28T08:18:47;10.70;99.90
29803;DHT22;16702;50.898;4.662;2023-12-28T08:21:18;10.70;99.90
29803;DHT22;16702;50.898;4.662;2023-12-28T08:23:49;10.70;99.90
29803;DHT22;16702;50.898;4.662;2023-12-28T08:26:19;10.70;99.90
29803;DHT22;16702;50.898;4.662;2023-12-28T08:28:53;10.70;99.90
29803;DHT22;16702;50.898;4.662;2023-12-28T08:31:23;10.70;99.90
29803;DHT22;16702;50.898;4.662;2023-12-28T08:33:54;10.70;99.90
29803;DHT22;16702;50.898;4.662;2023-12-28T08:36:25;10.80;99.90
29803;DHT22;16702;50.898;4.662;2023-12-28T08:38:56;10.80;99.90
29803;DHT22;16702;50.898;4.662;2023-12-28T08:41:27;10.80;99.90
29803;DHT22;16702;50.898;4.662;2023-12-28T08:44:00;10.80;99.90
29803;DHT22;16702;50.898;4.662;2023-12-28T08:46:31;10.80;99.90
29803;DHT22;16702;50.898;4.662;2023-12-28T08:49:02;10.80;99.90
29803;DHT22;16702;50.898;4.662;2023-12-28T08:51:32;10.90;99.90
29803;DHT22;16702;50.898;4.662;2023-12-28T08:54:03;10.90;99.90
29803;DHT22;16702;50.898;4.662;2023-12-28T08:56:34;10.90;99.90
29803;DHT22;16702;50.898;4.662;2023-12-28T08:59:07;10.90;99.90
29803;DHT22;16702;50.898;4.662;2023-12-28T09:01:38;11.00;99.90
29803;DHT22;16702;50.898;4.662;2023-12-28T09:04:08;11.00;99.90
29803;DHT22;16702;50.898;4.662;2023-12-28T09:06:39;11.00;99.90
29803;DHT22;16702;50.898;4.662;2023-12-28T09:09:10;11.00;99.90
29803;DHT22;16702;50.898;4.662;2023-12-28T09:11:41;11.00;99.90
29803;DHT22;16702;50.898;4.662;2023-12-28T09:14:14;11.00;99.90
29803;DHT22;16702;50.898;4.662;2023-12-28T09:16:46;11.00;99.90
29803;DHT22;16702;50.898;4.662;2023-12-28T09:19:17;11.00;99.90
29803;DHT22;16702;50.898;4.662;2023-12-28T09:21:47;11.00;99.90
29803;DHT22;16702;50.898;4.662;2023-12-28T09:24:18;11.00;99.90
29803;DHT22;16702;50.898;4.662;2023-12-28T09:26:48;11.00;99.90
29803;DHT22;16702;50.898;4.662;2023-12-28T09:29:23;11.00;99.90
29803;DHT22;16702;50.898;4.662;2023-12-28T09:31:53;11.00;99.90
29803;DHT22;16702;50.898;4.662;2023-12-28T09:34:24;11.00;99.90
29803;DHT22;16702;50.898;4.662;2023-12-28T09:36:54;11.10;99.90
29803;DHT22;16702;50.898;4.662;2023-12-28T09:39:25;11.00;99.90
29803;DHT22;16702;50.898;4.662;2023-12-28T09:42:02;11.10;99.90
29803;DHT22;16702;50.898;4.662;2023-12-28T09:44:38;11.10;99.90
29803;DHT22;16702;50.898;4.662;2023-12-28T09:47:11;11.10;99.90
29803;DHT22;16702;50.898;4.662;2023-12-28T09:49:43;11.10;99.90
29803;DHT22;16702;50.898;4.662;2023-12-28T09:52:16;11.10;99.90
29803;DHT22;16702;50.898;4.662;2023-12-28T09:54:46;11.20;99.90
29803;DHT22;16702;50.898;4.662;2023-12-28T09:57:17;11.10;99.90
29803;DHT22;16702;50.898;4.662;2023-12-28T09:59:52;11.20;99.90
29803;DHT22;16702;50.898;4.662;2023-12-28T10:02:22;11.20;99.90
29803;DHT22;16702;50.898;4.662;2023-12-28T10:04:53;11.20;99.90
29803;DHT22;16702;50.898;4.662;2023-12-28T10:07:24;11.20;99.90
29803;DHT22;16702;50.898;4.662;2023-12-28T10:09:54;11.30;99.90
29803;DHT22;16702;50.898;4.662;2023-12-28T10:12:25;11.30;99.90
29803;DHT22;16702;50.898;4.662;2023-12-28T10:14:59;11.30;99.90
29803;DHT22;16702;50.898;4.662;2023-12-28T10:17:32;11.30;99.90
29803;DHT22;16702;50.898;4.662;2023-12-28T10:20:03;11.30;99.90
29803;DHT22;16702;50.898;4.662;2023-12-28T10:22:37;11.30;99.90
29803;DHT22;16702;50.898;4.662;2023-12-28T10:25:08;11.40;99.90
29803;DHT22;16702;50.898;4.662;2023-12-28T10:27:39;11.40;99.90
29803;DHT22;16702;50.898;4.662;2023-12-28T10:30:13;11.40;99.90
29803;DHT22;16702;50.898;4.662;2023-12-28T10:32:45;11.50;99.90
29803;DHT22;16702;50.898;4.662;2023-12-28T10:35:16;11.50;99.90
29803;DHT22;16702;50.898;4.662;2023-12-28T10:37:52;11.50;99.90
29803;DHT22;16702;50.898;4.662;2023-12-28T10:40:23;11.50;99.90
29803;DHT22;16702;50.898;4.662;2023-12-28T10:42:58;11.50;99.90
29803;DHT22;16702;50.898;4.662;2023-12-28T10:45:35;11.50;99.90
29803;DHT22;16702;50.898;4.662;2023-12-28T10:48:09;11.60;99.90
29803;DHT22;16702;50.898;4.662;2023-12-28T10:50:41;11.50;99.90
29803;DHT22;16702;50.898;4.662;2023-12-28T10:53:38;11.60;99.90
29803;DHT22;16702;50.898;4.662;2023-12-28T10:56:18;11.60;99.90
29803;DHT22;16702;50.898;4.662;2023-12-28T10:58:55;11.60;99.90
29803;DHT22;16702;50.898;4.662;2023-12-28T11:01:32;11.60;99.90
29803;DHT22;16702;50.898;4.662;2023-12-28T11:04:10;11.70;99.90
29803;DHT22;16702;50.898;4.662;2023-12-28T11:06:44;11.70;99.90
29803;DHT22;16702;50.898;4.662;2023-12-28T11:09:16;11.80;99.90
29803;DHT22;16702;50.898;4.662;2023-12-28T11:11:48;11.80;99.90
29803;DHT22;16702;50.898;4.662;2023-12-28T11:14:20;11.80;99.90
29803;DHT22;16702;50.898;4.662;2023-12-28T11:16:54;11.80;99.90
29803;DHT22;16702;50.898;4.662;2023-12-28T11:19:26;11.90;99.90
29803;DHT22;16702;50.898;4.662;2023-12-28T11:21:58;11.90;99.90
29803;DHT22;16702;50.898;4.662;2023-12-28T11:24:30;11.80;99.90
29803;DHT22;16702;50.898;4.662;2023-12-28T11:27:02;11.90;99.90
29803;DHT22;16702;50.898;4.662;2023-12-28T11:29:37;11.80;99.90
29803;DHT22;16702;50.898;4.662;2023-12-28T11:32:11;11.90;99.90
29803;DHT22;16702;50.898;4.662;2023-12-28T11:34:41;11.90;99.90
29803;DHT22;16702;50.898;4.662;2023-12-28T11:37:16;11.90;99.90
29803;DHT22;16702;50.898;4.662;2023-12-28T11:39:49;11.90;99.90
29803;DHT22;16702;50.898;4.662;2023-12-28T11:42:20;12.00;99.90
29803;DHT22;16702;50.898;4.662;2023-12-28T11:44:54;11.90;99.90
29803;DHT22;16702;50.898;4.662;2023-12-28T11:47:28;11.90;99.90
29803;DHT22;16702;50.898;4.662;2023-12-28T11:50:06;12.00;99.90
29803;DHT22;16702;50.898;4.662;2023-12-28T11:52:37;12.00;99.90
29803;DHT22;16702;50.898;4.662;2023-12-28T11:55:11;12.00;99.90
29803;DHT22;16702;50.898;4.662;2023-12-28T11:57:42;12.00;99.90
29803;DHT22;16702;50.898;4.662;2023-12-28T12:00:13;12.10;99.90
29803;DHT22;16702;50.898;4.662;2023-12-28T12:02:46;12.00;99.90
29803;DHT22;16702;50.898;4.662;2023-12-28T12:05:17;12.10;99.90
29803;DHT22;16702;50.898;4.662;2023-12-28T12:07:49;12.10;99.90
29803;DHT22;16702;50.898;4.662;2023-12-28T12:10:19;12.10;99.90
29803;DHT22;16702;50.898;4.662;2023-12-28T12:12:52;12.10;99.90
29803;DHT22;16702;50.898;4.662;2023-12-28T12:15:23;12.10;99.90
29803;DHT22;16702;50.898;4.662;2023-12-28T12:17:56;12.10;99.90
29803;DHT22;16702;50.898;4.662;2023-12-28T12:20:28;12.10;99.90
29803;DHT22;16702;50.898;4.662;2023-12-28T12:22:59;12.10;99.90
29803;DHT22;16702;50.898;4.662;2023-12-28T12:25:28;12.10;99.90
29803;DHT22;16702;50.898;4.662;2023-12-28T12:27:59;12.10;99.90
29803;DHT22;16702;50.898;4.662;2023-12-28T12:30:31;12.20;99.90
29803;DHT22;16702;50.898;4.662;2023-12-28T12:33:05;12.10;99.90
29803;DHT22;16702;50.898;4.662;2023-12-28T12:35:37;12.20;99.90
29803;DHT22;16702;50.898;4.662;2023-12-28T12:38:07;12.20;99.90
29803;DHT22;16702;50.898;4.662;2023-12-28T12:40:38;12.20;99.90
29803;DHT22;16702;50.898;4.662;2023-12-28T12:43:10;12.20;99.90
29803;DHT22;16702;50.898;4.662;2023-12-28T12:45:41;12.20;99.90
29803;DHT22;16702;50.898;4.662;2023-12-28T12:48:17;12.20;99.90
29803;DHT22;16702;50.898;4.662;2023-12-28T12:50:48;12.20;99.90
29803;DHT22;16702;50.898;4.662;2023-12-28T12:53:18;12.20;99.90
29803;DHT22;16702;50.898;4.662;2023-12-28T12:55:53;12.20;99.90
29803;DHT22;16702;50.898;4.662;2023-12-28T12:58:25;12.20;99.90
29803;DHT22;16702;50.898;4.662;2023-12-28T13:01:01;12.10;99.90
29803;DHT22;16702;50.898;4.662;2023-12-28T13:03:35;12.00;99.90
29803;DHT22;16702;50.898;4.662;2023-12-28T13:06:07;12.10;99.90
29803;DHT22;16702;50.898;4.662;2023-12-28T13:08:38;12.10;99.90
29803;DHT22;16702;50.898;4.662;2023-12-28T13:11:09;12.10;99.90
29803;DHT22;16702;50.898;4.662;2023-12-28T13:13:40;12.10;99.90
29803;DHT22;16702;50.898;4.662;2023-12-28T13:16:10;12.10;99.90
29803;DHT22;16702;50.898;4.662;2023-12-28T13:18:43;12.10;99.90
29803;DHT22;16702;50.898;4.662;2023-12-28T13:21:14;12.10;99.90
29803;DHT22;16702;50.898;4.662;2023-12-28T13:23:45;12.10;99.90
29803;DHT22;16702;50.898;4.662;2023-12-28T13:26:16;12.00;99.90
29803;DHT22;16702;50.898;4.662;2023-12-28T13:28:46;12.10;99.90
29803;DHT22;16702;50.898;4.662;2023-12-28T13:31:17;12.10;99.90
29803;DHT22;16702;50.898;4.662;2023-12-28T13:33:50;12.10;99.90
29803;DHT22;16702;50.898;4.662;2023-12-28T13:36:21;12.00;99.90
29803;DHT22;16702;50.898;4.662;2023-12-28T13:38:54;12.00;99.90
29803;DHT22;16702;50.898;4.662;2023-12-28T13:41:25;12.00;99.90
29803;DHT22;16702;50.898;4.662;2023-12-28T13:43:55;12.00;99.90
29803;DHT22;16702;50.898;4.662;2023-12-28T13:46:30;12.00;99.90
29803;DHT22;16702;50.898;4.662;2023-12-28T13:49:03;12.00;99.90
29803;DHT22;16702;50.898;4.662;2023-12-28T13:51:36;12.00;99.90
29803;DHT22;16702;50.898;4.662;2023-12-28T13:54:06;12.00;99.90
29803;DHT22;16702;50.898;4.662;2023-12-28T13:56:37;12.00;99.90
29803;DHT22;16702;50.898;4.662;2023-12-28T13:59:09;12.00;99.90
29803;DHT22;16702;50.898;4.662;2023-12-28T14:01:40;12.00;99.90
29803;DHT22;16702;50.898;4.662;2023-12-28T14:04:13;12.00;99.90
29803;DHT22;16702;50.898;4.662;2023-12-28T14:06:44;12.00;99.90
29803;DHT22;16702;50.898;4.662;2023-12-28T14:09:15;12.00;99.90
29803;DHT22;16702;50.898;4.662;2023-12-28T14:11:47;12.00;99.90
29803;DHT22;16702;50.898;4.662;2023-12-28T14:14:18;12.00;99.90
29803;DHT22;16702;50.898;4.662;2023-12-28T14:16:49;12.00;99.90
29803;DHT22;16702;50.898;4.662;2023-12-28T14:19:22;12.00;99.90
29803;DHT22;16702;50.898;4.662;2023-12-28T14:21:53;12.00;99.90
29803;DHT22;16702;50.898;4.662;2023-12-28T14:24:25;12.00;99.90
29803;DHT22;16702;50.898;4.662;2023-12-28T14:26:57;12.00;99.90
29803;DHT22;16702;50.898;4.662;2023-12-28T14:29:28;12.00;99.90
29803;DHT22;16702;50.898;4.662;2023-12-28T14:31:59;12.00;99.90
29803;DHT22;16702;50.898;4.662;2023-12-28T14:34:33;12.00;99.90
29803;DHT22;16702;50.898;4.662;2023-12-28T14:37:04;12.00;99.90
29803;DHT22;16702;50.898;4.662;2023-12-28T14:39:35;12.00;99.90
29803;DHT22;16702;50.898;4.662;2023-12-28T14:42:06;12.00;99.90
29803;DHT22;16702;50.898;4.662;2023-12-28T14:44:38;11.90;99.90
29803;DHT22;16702;50.898;4.662;2023-12-28T14:47:08;11.90;99.90
29803;DHT22;16702;50.898;4.662;2023-12-28T14:49:42;11.90;99.90
29803;DHT22;16702;50.898;4.662;2023-12-28T14:52:12;11.90;99.90
29803;DHT22;16702;50.898;4.662;2023-12-28T14:54:43;11.90;99.90
29803;DHT22;16702;50.898;4.662;2023-12-28T14:57:14;11.90;99.90
29803;DHT22;16702;50.898;4.662;2023-12-28T14:59:44;11.90;99.90
29803;DHT22;16702;50.898;4.662;2023-12-28T15:02:15;11.80;99.90
29803;DHT22;16702;50.898;4.662;2023-12-28T15:04:49;11.80;99.90
29803;DHT22;16702;50.898;4.662;2023-12-28T15:07:20;11.90;99.90
29803;DHT22;16702;50.898;4.662;2023-12-28T15:09:51;11.90;99.90
29803;DHT22;16702;50.898;4.662;2023-12-28T15:12:24;11.90;99.90
29803;DHT22;16702;50.898;4.662;2023-12-28T15:14:55;11.80;99.90
29803;DHT22;16702;50.898;4.662;2023-12-28T15:17:26;11.90;99.90
29803;DHT22;16702;50.898;4.662;2023-12-28T15:20:00;11.90;99.90
29803;DHT22;16702;50.898;4.662;2023-12-28T15:22:32;11.80;99.90
29803;DHT22;16702;50.898;4.662;2023-12-28T15:25:04;11.80;99.90
29803;DHT22;16702;50.898;4.662;2023-12-28T15:27:36;11.80;99.90
29803;DHT22;16702;50.898;4.662;2023-12-28T15:30:08;11.80;99.90
29803;DHT22;16702;50.898;4.662;2023-12-28T15:32:40;11.80;99.90
29803;DHT22;16702;50.898;4.662;2023-12-28T15:35:14;11.70;99.90
29803;DHT22;16702;50.898;4.662;2023-12-28T15:37:44;11.70;99.90
29803;DHT22;16702;50.898;4.662;2023-12-28T15:40:15;11.70;99.90
29803;DHT22;16702;50.898;4.662;2023-12-28T15:42:45;11.70;99.90
29803;DHT22;16702;50.898;4.662;2023-12-28T15:45:18;11.70;99.90
29803;DHT22;16702;50.898;4.662;2023-12-28T15:47:49;11.60;99.90
29803;DHT22;16702;50.898;4.662;2023-12-28T15:50:22;11.60;99.90
29803;DHT22;16702;50.898;4.662;2023-12-28T15:52:54;11.60;99.90
29803;DHT22;16702;50.898;4.662;2023-12-28T15:55:25;11.60;99.90
29803;DHT22;16702;50.898;4.662;2023-12-28T15:57:56;11.60;99.90